Time;durP1;ratioP1;P1;durP2;ratioP2;P2;SDS_P1;SDS_P2;PMS_P1;PMS_P2;Temp;Humidity;BMP_temperature;BMP_pressure;BME280_temperature;BME280_humidity;BME280_pressure;Samples;Min_cycle;Max_cycle;Signal;HPM_P1;HPM_P2
2023/10/04 00:01:50;;;;;;;3.93;1.80;;;;;;;12.93;86.78;99952.84;5150789;27;40164;-81
2023/10/04 00:04:18;;;;;;;1.53;1.43;;;;;;;12.80;86.78;99930.53;5134880;27;40708;-81
2023/10/04 00:06:46;;;;;;;2.70;1.80;;;;;;;12.89;86.81;99952.16;5135171;27;42726;-81
2023/10/04 00:09:15;;;;;;;1.60;1.50;;;;;;;12.88;86.66;99941.59;5134689;27;43288;-82
2023/10/04 00:11:43;;;;;;;2.70;1.50;;;;;;;12.83;86.69;99939.22;5134826;27;39032;-81
2023/10/04 00:14:10;;;;;;;2.50;1.43;;;;;;;12.47;86.63;99882.72;5118750;27;41775;-81
2023/10/04 00:16:38;;;;;;;1.67;1.40;;;;;;;12.80;86.50;99943.81;5136230;27;42838;-81
2023/10/04 00:19:06;;;;;;;1.70;1.53;;;;;;;12.62;86.47;99921.75;5136387;27;43269;-81
2023/10/04 00:21:35;;;;;;;2.70;1.73;;;;;;;12.72;86.30;99946.03;5118946;27;38872;-81
2023/10/04 00:24:04;;;;;;;1.80;1.20;;;;;;;12.69;86.39;99954.19;5118627;27;42080;-80
2023/10/04 00:26:33;;;;;;;3.10;1.70;;;;;;;12.69;87.15;99956.84;5135693;27;42090;-81
2023/10/04 00:29:00;;;;;;;2.87;1.70;;;;;;;12.67;86.89;99953.41;5135979;27;41677;-81
2023/10/04 00:31:28;;;;;;;2.50;1.90;;;;;;;12.67;87.22;99953.41;5135774;27;40105;-81
2023/10/04 00:33:56;;;;;;;2.90;1.43;;;;;;;12.50;87.58;99928.56;5118820;27;42938;-82
2023/10/04 00:36:23;;;;;;;2.17;1.77;;;;;;;12.67;88.32;99948.09;5135541;27;43251;-80
2023/10/04 00:38:51;;;;;;;2.80;1.63;;;;;;;12.56;87.90;99936.22;5152301;27;43095;-80
2023/10/04 00:41:20;;;;;;;2.30;1.50;;;;;;;12.57;87.20;99937.09;5120646;27;38921;-81
2023/10/04 00:43:50;;;;;;;2.03;1.43;;;;;;;12.67;87.29;99956.06;5138226;27;41733;-81
2023/10/04 00:46:20;;;;;;;2.73;1.40;;;;;;;12.49;86.86;99928.66;5121206;27;42656;-81
2023/10/04 00:48:49;;;;;;;2.87;1.57;;;;;;;12.64;87.33;99953.56;5156606;27;43035;-81
2023/10/04 00:51:22;;;;;;;2.87;1.53;;;;;;;12.65;87.54;99944.63;5121206;27;39628;-81
2023/10/04 00:53:50;;;;;;;4.13;1.43;;;;;;;12.55;87.43;99929.19;5152395;27;41488;-80
2023/10/04 00:56:18;;;;;;;3.70;1.90;;;;;;;12.62;87.92;99942.13;5137502;27;42454;-80
2023/10/04 00:58:46;;;;;;;2.70;1.60;;;;;;;12.61;87.36;99948.41;5120897;27;42390;-81
2023/10/04 01:01:15;;;;;;;2.83;1.67;;;;;;;12.59;86.87;99952.03;5120593;27;38628;-81
2023/10/04 01:03:45;;;;;;;3.57;1.40;;;;;;;12.57;86.80;99955.69;5120635;27;41838;-81
2023/10/04 01:06:13;;;;;;;2.77;1.40;;;;;;;12.43;86.81;99937.81;5137656;27;41915;-80
2023/10/04 01:08:42;;;;;;;1.83;1.40;;;;;;;12.51;86.83;99943.56;5137983;27;41879;-80
2023/10/04 01:11:10;;;;;;;3.20;2.17;;;;;;;12.43;87.71;99929.84;5137619;27;39692;-80
2023/10/04 01:13:38;;;;;;;3.53;1.70;;;;;;;12.57;88.49;99951.25;5138769;27;41573;-81
2023/10/04 01:16:09;;;;;;;3.60;1.57;;;;;;;12.59;89.35;99952.03;5139239;27;43635;-80
2023/10/04 01:18:39;;;;;;;2.83;1.70;;;;;;;12.62;89.07;99943.00;5138926;27;41920;-81
2023/10/04 01:21:07;;;;;;;2.70;1.57;;;;;;;12.59;88.83;99937.88;5138907;27;40453;-81
2023/10/04 01:23:39;;;;;;;3.57;2.03;;;;;;;12.71;89.02;99960.28;5121288;27;40810;-81
2023/10/04 01:26:09;;;;;;;2.97;1.70;;;;;;;12.73;88.89;99953.94;5121240;27;44366;-81
2023/10/04 01:28:39;;;;;;;4.70;1.97;;;;;;;12.74;88.84;99949.44;5156944;27;42228;-81
2023/10/04 01:31:07;;;;;;;2.20;1.73;;;;;;;12.72;88.53;99954.88;5155583;27;40041;-80
2023/10/04 01:33:36;;;;;;;3.03;1.83;;;;;;;12.67;88.71;99937.44;5121073;27;40816;-81
2023/10/04 01:36:05;;;;;;;4.10;1.67;;;;;;;12.75;88.14;99949.38;5121069;27;43036;-80
2023/10/04 01:38:33;;;;;;;2.00;1.60;;;;;;;12.75;87.83;99951.16;5138495;27;41228;-80
2023/10/04 01:41:04;;;;;;;2.13;1.50;;;;;;;12.67;88.24;99942.75;5120683;27;38852;-82
2023/10/04 01:43:31;;;;;;;2.20;1.60;;;;;;;12.74;87.97;99960.09;5119788;27;40949;-81
2023/10/04 01:46:00;;;;;;;2.67;1.60;;;;;;;12.72;87.97;99954.03;5119903;27;41835;-81
2023/10/04 01:48:30;;;;;;;4.23;1.77;;;;;;;12.58;87.74;99937.00;5136916;27;41746;-81
2023/10/04 01:50:58;;;;;;;2.30;1.63;;;;;;;12.65;87.88;99949.97;5119652;27;40058;-82
2023/10/04 01:53:26;;;;;;;3.03;1.63;;;;;;;12.63;87.35;99957.16;5144484;27;40359;-83
2023/10/04 01:55:55;;;;;;;1.93;1.70;;;;;;;12.58;87.67;99955.63;5155166;27;42725;-80
2023/10/04 01:58:24;;;;;;;1.90;1.53;;;;;;;12.56;87.68;99965.47;5144087;27;42281;-80
2023/10/04 02:00:52;;;;;;;2.33;1.27;;;;;;;12.54;87.38;99970.00;5140150;27;38837;-81
2023/10/04 02:03:20;;;;;;;1.50;1.30;;;;;;;12.48;87.18;99959.69;5138283;27;42748;-81
2023/10/04 02:05:50;;;;;;;1.77;1.30;;;;;;;12.46;87.17;99966.88;5154222;27;44101;-80
2023/10/04 02:08:17;;;;;;;2.87;1.57;;;;;;;12.42;87.08;99961.81;5136992;27;41154;-80
2023/10/04 02:10:45;;;;;;;2.33;1.33;;;;;;;12.40;86.79;99961.88;5136991;27;39938;-81
2023/10/04 02:13:15;;;;;;;2.03;1.40;;;;;;;12.37;86.91;99964.69;5155182;27;42150;-80
2023/10/04 02:15:47;;;;;;;1.53;1.43;;;;;;;12.34;87.75;99956.03;5138193;27;42049;-80
2023/10/04 02:18:15;;;;;;;2.83;1.63;;;;;;;12.29;87.23;99955.41;5138074;27;42151;-80
2023/10/04 02:20:46;;;;;;;2.73;1.67;;;;;;;12.23;87.13;99948.63;5155445;27;40160;-80
2023/10/04 02:23:14;;;;;;;3.47;1.47;;;;;;;12.20;87.05;99948.78;5153247;27;41925;-81
2023/10/04 02:25:42;;;;;;;1.90;1.57;;;;;;;12.18;86.92;99951.53;5137785;27;41684;-81
2023/10/04 02:28:11;;;;;;;2.83;1.40;;;;;;;12.11;86.82;99958.09;5120753;27;41354;-80
2023/10/04 02:30:40;;;;;;;1.57;1.47;;;;;;;12.17;86.70;99965.72;5155287;27;40055;-80
2023/10/04 02:33:13;;;;;;;2.00;1.37;;;;;;;12.13;86.07;99974.78;5120758;27;40768;-81
2023/10/04 02:35:44;;;;;;;2.53;1.73;;;;;;;12.10;86.29;99979.41;5155041;27;43367;-81
2023/10/04 02:38:19;;;;;;;1.47;1.37;;;;;;;12.05;86.44;99976.13;5137380;27;41112;-80
2023/10/04 02:40:49;;;;;;;1.90;1.63;;;;;;;12.00;86.35;99978.13;5137489;27;40295;-80
2023/10/04 02:43:17;;;;;;;3.33;1.40;;;;;;;11.98;86.00;99978.25;5137692;27;42710;-81
2023/10/04 02:45:47;;;;;;;1.50;1.40;;;;;;;11.83;86.35;99958.63;5137386;27;43827;-81
2023/10/04 02:48:16;;;;;;;1.90;1.60;;;;;;;11.91;86.34;99978.59;5155855;27;42161;-81
2023/10/04 02:50:44;;;;;;;2.60;1.90;;;;;;;11.82;86.69;99966.66;5152606;27;40869;-82
2023/10/04 02:53:16;;;;;;;2.03;1.40;;;;;;;11.87;86.54;99973.44;5136240;27;40863;-80
2023/10/04 02:55:46;;;;;;;1.43;1.20;;;;;;;11.86;86.57;99979.72;5118559;27;41590;-81
2023/10/04 02:58:16;;;;;;;2.27;1.47;;;;;;;11.82;86.53;99970.19;5153536;27;43241;-82
2023/10/04 03:00:47;;;;;;;1.63;1.30;;;;;;;11.83;86.55;99971.91;5134898;27;38583;-81
2023/10/04 03:03:25;;;;;;;1.80;1.30;;;;;;;11.82;86.15;99966.66;5136008;27;41097;-81
2023/10/04 03:05:57;;;;;;;1.77;1.20;;;;;;;11.79;85.87;99970.31;5135839;27;42677;-80
2023/10/04 03:08:27;;;;;;;2.20;1.60;;;;;;;11.46;85.82;99924.22;5135853;27;42732;-81
2023/10/04 03:10:56;;;;;;;1.37;1.20;;;;;;;11.74;85.94;99972.34;5135837;27;40015;-82
2023/10/04 03:13:27;;;;;;;1.33;1.10;;;;;;;11.68;86.06;99964.66;5136740;27;42770;-81
2023/10/04 03:16:00;;;;;;;1.67;1.20;;;;;;;11.69;86.23;99971.69;5136413;27;42710;-80
2023/10/04 03:18:29;;;;;;;2.37;1.40;;;;;;;11.31;86.07;99911.69;5136876;27;40941;-82
2023/10/04 03:21:10;;;;;;;2.47;1.30;;;;;;;11.61;86.15;99965.91;5153578;27;40185;-81
2023/10/04 03:23:41;;;;;;;2.73;1.70;;;;;;;11.23;87.03;99901.47;5150771;27;41892;-82
2023/10/04 03:26:14;;;;;;;4.07;2.00;;;;;;;11.60;87.33;99973.94;5119341;27;44775;-80
2023/10/04 03:28:44;;;;;;;2.60;1.60;;;;;;;11.50;86.79;99955.78;5152511;27;42283;-81
2023/10/04 03:31:14;;;;;;;1.43;1.33;;;;;;;11.57;86.97;99968.78;5119485;27;38784;-80
2023/10/04 03:33:44;;;;;;;2.43;1.60;;;;;;;11.55;87.11;99971.50;5152197;27;41713;-81
2023/10/04 03:36:17;;;;;;;3.43;2.03;;;;;;;11.51;87.09;99962.81;5136641;27;41802;-81
2023/10/04 03:38:45;;;;;;;2.57;1.90;;;;;;;11.38;87.48;99942.25;5150696;27;43321;-81
2023/10/04 03:41:15;;;;;;;2.87;1.97;;;;;;;11.42;87.26;99954.44;5135871;27;38708;-81
2023/10/04 03:43:43;;;;;;;4.10;1.97;;;;;;;11.49;87.33;99967.38;5134591;27;41791;-80
2023/10/04 03:46:18;;;;;;;2.43;1.50;;;;;;;11.47;87.49;99963.94;5117969;27;41752;-82
2023/10/04 03:48:49;;;;;;;2.07;1.80;;;;;;;11.46;87.13;99967.50;5135005;27;42349;-81
2023/10/04 03:51:20;;;;;;;2.10;1.90;;;;;;;11.40;87.13;99962.47;5135082;27;38883;-81
2023/10/04 03:53:49;;;;;;;2.83;1.63;;;;;;;11.44;86.95;99971.16;5117788;27;41694;-81
2023/10/04 03:56:18;;;;;;;2.20;1.23;;;;;;;11.42;86.74;99970.38;5117606;27;42927;-80
2023/10/04 03:58:48;;;;;;;2.00;1.43;;;;;;;11.38;86.32;99974.94;5117721;27;42240;-81
2023/10/04 04:01:16;;;;;;;2.27;1.57;;;;;;;11.37;87.00;99965.31;5134920;27;39101;-80
2023/10/04 04:03:44;;;;;;;2.77;1.67;;;;;;;11.23;86.79;99945.69;5118137;27;41743;-81
2023/10/04 04:06:13;;;;;;;2.83;1.60;;;;;;;11.33;86.87;99966.38;5135071;27;42716;-82
2023/10/04 04:08:42;;;;;;;2.23;1.67;;;;;;;11.35;86.82;99974.25;5135000;27;43348;-81
2023/10/04 04:11:09;;;;;;;2.97;1.70;;;;;;;11.35;86.58;99979.56;5134633;27;39357;-81
2023/10/04 04:13:37;;;;;;;1.47;1.07;;;;;;;11.29;86.61;99971.88;5155638;27;41466;-81
2023/10/04 04:16:09;;;;;;;2.27;1.60;;;;;;;11.20;86.58;99948.47;5139744;27;41689;-80
2023/10/04 04:18:38;;;;;;;3.60;1.50;;;;;;;11.38;86.84;99974.09;5122700;27;41218;-80
2023/10/04 04:21:06;;;;;;;1.63;1.30;;;;;;;11.02;86.67;99919.22;5139955;27;40040;-81
2023/10/04 04:23:35;;;;;;;1.77;1.40;;;;;;;11.40;86.77;99972.22;5122231;27;40642;-82
2023/10/04 04:26:05;;;;;;;2.50;1.57;;;;;;;11.43;86.45;99980.06;5122174;27;43012;-82
2023/10/04 04:28:36;;;;;;;1.83;1.37;;;;;;;11.36;86.50;99960.94;5139895;27;41056;-82
2023/10/04 04:31:14;;;;;;;1.93;1.40;;;;;;;11.49;86.65;99982.44;5122304;27;38958;-80
2023/10/04 04:33:42;;;;;;;1.97;1.43;;;;;;;11.18;86.30;99927.31;5122592;27;42117;-81
2023/10/04 04:36:18;;;;;;;1.97;1.70;;;;;;;11.51;87.09;99969.91;5120101;27;41990;-82
2023/10/04 04:38:48;;;;;;;2.53;1.80;;;;;;;11.52;87.08;99972.50;5152306;27;42249;-80
2023/10/04 04:41:21;;;;;;;3.90;2.53;;;;;;;11.46;87.68;99956.91;5156076;27;39872;-81
2023/10/04 04:43:49;;;;;;;3.73;1.97;;;;;;;11.57;87.87;99966.97;5138367;27;40569;-80
2023/10/04 04:46:18;;;;;;;2.70;1.80;;;;;;;11.51;87.73;99959.31;5138364;27;41429;-81
2023/10/04 04:48:48;;;;;;;1.90;1.43;;;;;;;11.60;87.36;99974.81;5120940;27;41568;-81
2023/10/04 04:51:19;;;;;;;3.57;1.63;;;;;;;11.59;87.47;99975.72;5120604;27;40126;-82
2023/10/04 04:53:53;;;;;;;2.63;1.67;;;;;;;11.58;87.16;99981.97;5152249;27;41918;-82
2023/10/04 04:56:24;;;;;;;4.23;2.40;;;;;;;11.57;87.58;99979.38;5154963;27;42876;-81
2023/10/04 04:58:56;;;;;;;2.57;1.80;;;;;;;11.58;87.53;99973.16;5138483;27;41875;-80
2023/10/04 05:01:33;;;;;;;3.00;1.70;;;;;;;11.57;87.16;99974.94;5139974;27;38933;-81
2023/10/04 05:04:06;;;;;;;3.00;1.87;;;;;;;11.58;87.37;99981.09;5155333;27;40349;-80
2023/10/04 05:06:33;;;;;;;2.37;1.60;;;;;;;11.54;87.14;99975.09;5161322;27;42929;-82
2023/10/04 05:09:02;;;;;;;2.00;1.53;;;;;;;11.53;86.71;99979.53;5121632;27;42559;-82
2023/10/04 05:11:30;;;;;;;2.60;1.87;;;;;;;11.51;86.30;99985.84;5138297;27;39039;-82
2023/10/04 05:13:58;;;;;;;3.17;1.80;;;;;;;11.47;86.80;99986.94;5121553;27;40470;-80
2023/10/04 05:16:26;;;;;;;3.00;1.90;;;;;;;11.45;86.78;99981.69;5138499;27;41687;-83
2023/10/04 05:18:54;;;;;;;3.33;1.90;;;;;;;11.45;87.28;99981.69;5138527;27;41078;-81
2023/10/04 05:21:21;;;;;;;2.80;2.03;;;;;;;11.46;87.56;99979.91;5121367;27;39070;-81
2023/10/04 05:23:49;;;;;;;2.80;1.83;;;;;;;11.38;87.41;99963.47;5120723;27;41438;-81
2023/10/04 05:26:19;;;;;;;3.27;1.80;;;;;;;11.39;87.48;99965.22;5156431;27;43018;-80
2023/10/04 05:28:46;;;;;;;2.87;1.90;;;;;;;11.45;88.05;99978.19;5138264;27;42383;-82
2023/10/04 05:31:13;;;;;;;4.07;2.50;;;;;;;11.49;88.00;99988.59;5138302;27;40163;-82
2023/10/04 05:33:41;;;;;;;3.50;1.97;;;;;;;11.55;87.80;99992.72;5156942;27;42489;-81
2023/10/04 05:36:08;;;;;;;3.00;1.80;;;;;;;11.58;87.38;99991.72;5156905;27;43787;-82
2023/10/04 05:38:36;;;;;;;3.37;2.20;;;;;;;11.61;87.66;100003.06;5120560;27;43105;-82
2023/10/04 05:41:03;;;;;;;3.87;2.07;;;;;;;11.54;87.51;99980.38;5137089;27;38872;-80
2023/10/04 05:43:34;;;;;;;2.40;1.73;;;;;;;11.68;87.19;99987.69;5118976;27;40615;-82
2023/10/04 05:46:03;;;;;;;3.40;2.00;;;;;;;11.73;87.12;99991.84;5136632;27;42679;-81
2023/10/04 05:48:30;;;;;;;5.27;2.30;;;;;;;11.79;87.21;100002.19;5136495;27;42477;-81
2023/10/04 05:50:58;;;;;;;3.43;2.13;;;;;;;11.82;87.06;99996.72;5136649;27;38987;-82
2023/10/04 05:53:26;;;;;;;3.00;1.90;;;;;;;11.86;86.77;99998.31;5119452;27;42076;-81
2023/10/04 05:55:54;;;;;;;2.57;1.53;;;;;;;11.90;86.86;100003.44;5154685;27;43070;-82
2023/10/04 05:58:22;;;;;;;4.63;2.17;;;;;;;11.92;86.76;100002.44;5136966;27;42196;-81
2023/10/04 06:00:52;;;;;;;2.50;1.77;;;;;;;11.69;86.78;99969.03;5136211;27;39832;-82
2023/10/04 06:03:20;;;;;;;3.27;1.97;;;;;;;11.95;86.96;100004.06;5119251;27;42588;-82
2023/10/04 06:05:47;;;;;;;1.80;1.63;;;;;;;11.97;86.84;100010.19;5136460;27;43097;-81
2023/10/04 06:08:18;;;;;;;3.87;2.13;;;;;;;11.92;86.81;99988.28;5119305;27;42816;-81
2023/10/04 06:10:47;;;;;;;3.17;1.77;;;;;;;12.02;87.02;100008.13;5119296;27;39011;-83
2023/10/04 06:13:17;;;;;;;2.43;1.87;;;;;;;11.79;86.71;99967.66;5136835;27;41910;-81
2023/10/04 06:15:46;;;;;;;3.50;2.37;;;;;;;12.10;86.83;100011.28;5137183;27;42750;-81
2023/10/04 06:18:16;;;;;;;4.33;2.60;;;;;;;12.13;87.09;100016.41;5137390;27;41491;-83
2023/10/04 06:20:45;;;;;;;4.10;2.50;;;;;;;12.09;87.13;99998.94;5119936;27;40200;-80
2023/10/04 06:23:14;;;;;;;4.63;2.43;;;;;;;12.18;87.31;99998.47;5120096;27;40859;-79
2023/10/04 06:25:44;;;;;;;4.20;2.87;;;;;;;12.39;86.89;100018.59;5136937;27;44477;-82
2023/10/04 06:28:13;;;;;;;2.57;2.20;;;;;;;12.51;86.92;100030.41;5137242;27;41357;-81
2023/10/04 06:30:43;;;;;;;2.80;2.27;;;;;;;12.58;86.59;100035.34;5155580;27;39988;-83
2023/10/04 06:33:12;;;;;;;3.70;2.20;;;;;;;12.72;86.61;100033.75;5137082;27;40715;-83
2023/10/04 06:35:43;;;;;;;4.57;2.80;;;;;;;12.69;86.53;99997.56;5136383;27;43815;-82
2023/10/04 06:38:11;;;;;;;2.93;2.60;;;;;;;13.12;85.69;100054.63;5136605;27;41573;-82
2023/10/04 06:40:40;;;;;;;4.33;2.20;;;;;;;13.14;85.54;100036.81;5137002;27;40143;-83
2023/10/04 06:43:09;;;;;;;3.60;2.53;;;;;;;13.61;85.12;100063.47;5153853;27;41988;-82
2023/10/04 06:45:37;;;;;;;3.43;2.57;;;;;;;14.17;83.47;100058.53;5153256;27;42887;-82
2023/10/04 06:48:06;;;;;;;3.50;2.63;;;;;;;14.39;81.36;100048.31;5118698;27;41619;-82
2023/10/04 06:50:38;;;;;;;3.83;2.60;;;;;;;14.55;80.82;100066.97;5135386;27;40441;-82
2023/10/04 06:53:08;;;;;;;3.20;2.80;;;;;;;14.76;80.41;100075.50;5136123;27;41884;-82
2023/10/04 06:55:37;;;;;;;4.67;2.40;;;;;;;14.84;79.54;100081.22;5135605;27;41977;-82
2023/10/04 06:58:05;;;;;;;4.77;3.00;;;;;;;14.85;79.32;100083.78;5118458;27;42250;-82
2023/10/04 08:43:38;;;;;;;2.03;1.30;;;;;;;26.07;43.21;100198.50;5108306;28;20564;-82
2023/10/04 08:46:07;;;;;;;1.80;1.40;;;;;;;26.20;43.02;100208.91;5107595;28;39733;-83
2023/10/04 08:48:35;;;;;;;5.97;1.80;;;;;;;26.80;41.08;100218.66;5107453;28;41376;-83
2023/10/04 08:51:16;;;;;;;2.23;1.67;;;;;;;27.05;40.29;100230.47;5107050;28;42937;-82
2023/10/04 08:53:57;;;;;;;2.37;1.20;;;;;;;26.17;40.94;100225.53;5105325;28;42030;-82
2023/10/04 08:56:28;;;;;;;2.80;1.50;;;;;;;25.73;41.91;100217.47;5105969;28;39896;-82
2023/10/04 08:58:59;;;;;;;1.40;1.20;;;;;;;25.10;42.36;100216.81;5107560;28;41535;-83
2023/10/04 09:01:28;;;;;;;1.93;1.27;;;;;;;24.41;44.19;100196.56;5090253;28;42794;-82
2023/10/04 09:03:57;;;;;;;1.53;1.30;;;;;;;23.84;45.02;100197.69;5108630;28;43084;-82
2023/10/04 09:06:25;;;;;;;2.60;1.30;;;;;;;23.36;45.39;100186.97;5107024;28;40671;-82
2023/10/04 09:08:52;;;;;;;3.73;1.50;;;;;;;22.95;46.56;100180.88;5106946;28;42021;-83
2023/10/04 09:11:20;;;;;;;2.60;1.47;;;;;;;22.60;47.19;100167.03;5106939;28;42907;-82
2023/10/04 09:13:48;;;;;;;3.43;1.40;;;;;;;22.18;47.45;100153.72;5090994;28;42173;-82
2023/10/04 09:16:28;;;;;;;5.37;1.60;;;;;;;22.04;48.74;100170.31;5108862;28;41107;-82
2023/10/04 09:19:08;;;;;;;3.97;1.53;;;;;;;21.95;49.54;100153.06;5140988;27;43241;-82
2023/10/04 09:21:38;;;;;;;1.93;1.07;;;;;;;22.04;49.04;100156.81;5107724;28;42744;-82
2023/10/04 09:24:09;;;;;;;3.40;1.70;;;;;;;21.97;48.69;100163.72;5092539;28;41952;-82
2023/10/04 09:26:38;;;;;;;2.77;1.30;;;;;;;21.80;49.18;100163.38;5141910;27;40058;-81
2023/10/04 09:29:06;;;;;;;2.13;0.87;;;;;;;21.59;49.34;100159.00;5108373;28;42853;-81
2023/10/04 09:31:50;;;;;;;1.73;1.13;;;;;;;21.61;49.53;100152.50;5124976;27;42345;-81
2023/10/04 09:34:17;;;;;;;2.40;1.30;;;;;;;21.57;49.59;100156.44;5106174;28;42778;-81
2023/10/04 09:36:45;;;;;;;2.63;1.53;;;;;;;21.46;49.70;100159.22;5107865;28;40601;-81
2023/10/04 09:39:15;;;;;;;2.47;1.60;;;;;;;21.47;50.13;100160.94;5107741;28;41846;-81
2023/10/04 09:41:47;;;;;;;2.00;1.37;;;;;;;21.48;50.67;100151.88;5109020;28;44182;-82
2023/10/04 09:44:20;;;;;;;3.13;1.30;;;;;;;21.51;50.41;100146.22;5142573;27;42630;-81
2023/10/04 09:46:54;;;;;;;1.97;1.20;;;;;;;21.58;49.57;100152.75;5107088;28;40163;-81
2023/10/04 09:49:23;;;;;;;2.07;1.30;;;;;;;21.24;50.80;100148.59;5104933;28;42262;-82
2023/10/04 09:51:51;;;;;;;3.13;1.60;;;;;;;21.01;51.15;100142.47;5090521;28;43145;-82
2023/10/04 09:54:18;;;;;;;2.80;1.30;;;;;;;21.12;51.11;100135.16;5097405;28;41537;-81
2023/10/04 09:56:47;;;;;;;1.80;1.30;;;;;;;21.15;50.72;100125.94;5093603;28;38849;-81
2023/10/04 09:59:19;;;;;;;1.67;1.10;;;;;;;21.20;50.81;100137.22;5094938;28;42140;-81
2023/10/04 10:01:54;;;;;;;1.93;1.23;;;;;;;21.70;50.43;100124.72;5076593;28;42239;-82
2023/10/04 10:04:26;;;;;;;3.27;1.30;;;;;;;22.16;49.64;100143.06;5090719;28;42339;-82
2023/10/04 10:07:16;;;;;;;2.27;1.20;;;;;;;23.74;47.65;100154.41;5126061;27;39907;-82
2023/10/04 10:09:57;;;;;;;3.03;1.63;;;;;;;25.69;43.86;100178.97;5090491;28;42737;-82
2023/10/04 10:12:29;;;;;;;1.80;1.43;;;;;;;27.13;41.22;100195.09;5093233;28;43053;-81
2023/10/04 10:15:00;;;;;;;2.83;1.10;;;;;;;26.72;40.80;100194.16;5076559;28;42098;-81
2023/10/04 10:17:30;;;;;;;2.00;1.07;;;;;;;25.86;41.52;100196.16;5127628;27;40148;-81
2023/10/04 10:19:58;;;;;;;3.37;1.20;;;;;;;25.16;42.68;100187.19;5093875;28;42603;-81
2023/10/04 10:22:25;;;;;;;4.10;1.50;;;;;;;24.79;43.88;100172.91;5127236;27;43659;-82
2023/10/04 10:25:11;;;;;;;1.73;1.20;;;;;;;24.22;43.43;100169.59;5094482;28;42940;-82
2023/10/04 10:27:38;;;;;;;2.17;1.20;;;;;;;24.75;43.23;100185.06;5093457;28;40637;-81
2023/10/04 10:30:09;;;;;;;2.03;1.10;;;;;;;25.73;41.97;100183.03;5093401;28;42767;-81
2023/10/04 10:32:50;;;;;;;2.17;1.10;;;;;;;26.82;39.86;100184.00;5094322;28;43591;-82
2023/10/04 10:35:52;;;;;;;2.17;1.43;;;;;;;28.84;36.79;100225.47;5093119;28;44248;-81
2023/10/04 10:38:47;;;;;;;2.23;1.47;;;;;;;31.38;33.09;100217.84;5075667;28;38802;-82
2023/10/04 10:41:55;;;;;;;2.13;1.33;;;;;;;33.66;30.48;100238.53;5088968;28;41797;-85
2023/10/04 10:44:24;;;;;;;1.55;1.40;;;;;;;35.29;28.37;100236.34;5090963;28;43039;-82
2023/10/04 10:46:56;;;;;;;3.47;1.40;;;;;;;36.50;26.41;100240.53;5091507;28;41246;-82
2023/10/04 10:49:44;;;;;;;1.88;1.65;;;;;;;37.63;24.52;100266.38;5091565;28;39080;-82
2023/10/04 10:52:21;;;;;;;2.15;1.23;;;;;;;38.69;23.58;100262.50;5091829;28;40532;-83
2023/10/04 10:54:49;;;;;;;3.05;1.58;;;;;;;39.23;22.30;100249.16;5091311;28;41841;-84
2023/10/04 10:57:19;;;;;;;3.65;1.60;;;;;;;39.39;21.96;100242.81;5091523;28;41111;-83
2023/10/04 10:59:49;;;;;;;2.40;1.83;;;;;;;39.03;22.23;100249.63;5092770;28;42032;-82
2023/10/04 11:02:16;;;;;;;2.90;0.90;;;;;;;38.67;21.10;100250.00;5074339;28;41818;-83
2023/10/04 11:04:45;;;;;;;2.35;1.33;;;;;;;38.79;22.10;100236.94;5073979;28;41943;-82
2023/10/04 11:07:13;;;;;;;1.88;1.10;;;;;;;39.40;21.34;100238.94;5092333;28;42539;-83
2023/10/04 11:09:43;;;;;;;2.88;1.25;;;;;;;40.51;21.62;100227.91;5092488;28;39271;-82
2023/10/04 11:12:12;;;;;;;1.38;0.95;;;;;;;41.49;19.51;100239.81;5091278;28;41140;-83
2023/10/04 11:14:40;;;;;;;2.33;1.00;;;;;;;42.23;18.62;100235.13;5126563;27;43714;-82
2023/10/04 11:17:10;;;;;;;2.00;1.05;;;;;;;42.52;18.19;100215.22;5092102;28;42085;-82
2023/10/04 11:19:38;;;;;;;2.33;1.27;;;;;;;42.76;18.68;100216.41;5108239;27;40621;-80
2023/10/04 11:22:08;;;;;;;1.83;1.00;;;;;;;42.41;18.86;100194.81;5115396;28;43261;-83
2023/10/04 11:24:36;;;;;;;1.75;1.00;;;;;;;41.59;19.42;100207.41;5093742;28;43190;-82
2023/10/04 11:27:04;;;;;;;3.25;1.27;;;;;;;40.47;20.38;100196.19;5126579;27;42495;-82
2023/10/04 11:29:33;;;;;;;2.08;1.05;;;;;;;40.04;19.60;100186.75;5073596;28;38907;-84
2023/10/04 11:32:01;;;;;;;1.25;1.10;;;;;;;40.52;19.78;100190.72;5091998;28;42836;-83
2023/10/04 11:34:30;;;;;;;2.20;0.93;;;;;;;41.75;19.64;100183.31;5108002;28;42816;-83
2023/10/04 11:37:00;;;;;;;2.83;1.33;;;;;;;42.97;17.94;100187.50;5092245;28;42712;-83
2023/10/04 11:39:33;;;;;;;3.75;1.00;;;;;;;43.92;16.93;100184.13;5090714;28;40113;-83
2023/10/04 11:42:02;;;;;;;1.73;1.00;;;;;;;44.65;16.61;100195.59;5090205;28;41083;-84
2023/10/04 11:44:32;;;;;;;1.92;1.33;;;;;;;45.14;15.59;100209.59;5090660;28;43016;-83
2023/10/04 11:47:03;;;;;;;1.00;0.90;;;;;;;45.45;15.67;100190.59;5123069;27;42164;-84
2023/10/04 11:49:33;;;;;;;1.10;0.90;;;;;;;45.59;15.36;100180.44;5073687;28;41279;-83
2023/10/04 11:52:04;;;;;;;1.30;1.10;;;;;;;45.79;15.56;100177.41;5091502;28;41878;-82
2023/10/04 11:54:44;;;;;;;1.65;1.10;;;;;;;44.63;15.95;100173.56;5073789;28;41505;-81
2023/10/04 11:57:12;;;;;;;1.83;1.20;;;;;;;44.67;16.05;100174.63;5123463;27;43131;-82
2023/10/04 11:59:40;;;;;;;1.45;1.35;;;;;;;44.56;16.79;100161.00;5090580;28;41002;-83
2023/10/04 12:02:10;;;;;;;2.50;1.38;;;;;;;44.25;16.73;100149.97;5073564;28;40700;-82
2023/10/04 12:04:37;;;;;;;1.58;1.17;;;;;;;41.85;16.76;100105.44;5107041;28;42951;-82
2023/10/04 12:07:06;;;;;;;2.05;1.13;;;;;;;41.47;18.00;100145.50;5090421;28;41719;-82
2023/10/04 12:09:35;;;;;;;2.58;1.08;;;;;;;41.84;18.07;100141.88;5090446;28;40689;-81
2023/10/04 12:12:06;;;;;;;1.35;1.20;;;;;;;41.80;17.41;100146.31;5090483;28;42597;-81
2023/10/04 12:14:34;;;;;;;2.90;1.67;;;;;;;40.55;18.81;100141.00;5091622;28;43755;-81
2023/10/04 12:17:03;;;;;;;2.10;1.10;;;;;;;39.38;18.84;100123.84;5073968;28;42287;-81
2023/10/04 12:19:32;;;;;;;2.00;1.50;;;;;;;39.14;19.19;100128.72;5074401;28;39240;-81
2023/10/04 12:22:02;;;;;;;1.90;1.20;;;;;;;38.35;19.72;100086.22;5091350;28;42793;-82
2023/10/04 12:24:30;;;;;;;2.05;1.67;;;;;;;38.39;19.47;100123.41;5090654;28;44114;-81
2023/10/04 12:27:00;;;;;;;2.72;1.70;;;;;;;38.95;19.85;100124.50;5090934;28;42186;-81
2023/10/04 12:29:29;;;;;;;2.97;1.65;;;;;;;38.92;19.60;100122.22;5091031;28;40014;-81
2023/10/04 12:31:57;;;;;;;3.20;1.45;;;;;;;37.85;20.59;100100.66;5091177;28;42447;-82
2023/10/04 12:34:25;;;;;;;2.28;1.33;;;;;;;37.17;20.78;100106.81;5091154;28;43138;-82
2023/10/04 12:36:52;;;;;;;2.80;1.55;;;;;;;36.20;22.15;100105.25;5090762;28;41896;-82
2023/10/04 12:39:21;;;;;;;2.30;1.48;;;;;;;34.73;22.12;100095.84;5091327;28;40786;-82
2023/10/04 12:41:49;;;;;;;2.17;1.50;;;;;;;33.37;23.49;100092.34;5089832;28;41805;-83
2023/10/04 12:44:17;;;;;;;3.00;1.87;;;;;;;32.08;25.09;100019.56;5090050;28;42544;-83
2023/10/04 12:46:48;;;;;;;3.37;1.57;;;;;;;31.80;26.11;100068.13;5089890;28;41591;-82
2023/10/04 12:49:18;;;;;;;1.70;1.23;;;;;;;31.02;26.83;100032.66;5091318;28;39988;-81
2023/10/04 12:51:47;;;;;;;2.60;1.47;;;;;;;30.78;26.89;100060.47;5089417;28;40945;-82
2023/10/04 12:54:16;;;;;;;2.80;1.50;;;;;;;31.50;27.07;100056.59;5090016;28;43866;-82
2023/10/04 12:56:46;;;;;;;1.53;1.20;;;;;;;30.97;27.72;100032.41;5090885;28;42604;-83
2023/10/04 12:59:14;;;;;;;3.77;1.50;;;;;;;30.34;27.96;100053.25;5072973;28;40233;-82
2023/10/04 13:01:42;;;;;;;4.63;1.47;;;;;;;29.61;29.20;100017.91;5072869;28;42700;-82
2023/10/04 13:04:11;;;;;;;2.40;1.57;;;;;;;29.10;29.36;100041.47;5090824;28;43249;-82
2023/10/04 13:06:38;;;;;;;2.53;1.17;;;;;;;28.46;30.10;100032.81;5072791;28;41449;-82
2023/10/04 13:09:14;;;;;;;3.80;1.77;;;;;;;27.81;31.52;100027.78;5123905;27;39903;-83
2023/10/04 13:11:44;;;;;;;2.33;1.30;;;;;;;27.26;32.36;100019.63;5089555;28;41565;-82
2023/10/04 13:14:11;;;;;;;2.77;1.30;;;;;;;26.81;32.88;100019.19;5090705;28;42068;-82
2023/10/04 13:16:39;;;;;;;3.63;1.17;;;;;;;26.34;33.39;99996.41;5090607;28;43134;-82
2023/10/04 13:19:06;;;;;;;2.87;1.70;;;;;;;26.18;34.20;99983.66;5074106;28;39448;-81
2023/10/04 13:21:35;;;;;;;3.27;1.30;;;;;;;26.87;33.55;100008.63;5090580;28;41693;-82
2023/10/04 13:24:04;;;;;;;3.20;1.27;;;;;;;27.94;32.84;99994.53;5090562;28;42898;-81
2023/10/04 13:26:32;;;;;;;2.17;1.57;;;;;;;28.84;32.19;99998.28;5091642;28;43149;-81